Time;durP1;ratioP1;P1;durP2;ratioP2;P2;SDS_P1;SDS_P2;PMS_P1;PMS_P2;Temp;Humidity;BMP_temperature;BMP_pressure;BME280_temperature;BME280_humidity;BME280_pressure;Samples;Min_cycle;Max_cycle;Signal;HPM_P1;HPM_P2
2021/12/19 00:00:37;;;;;;;4.25;3.05;;;;;;;2.02;80.24;100125.97;1823813;78;21002;-77
2021/12/19 00:08:49;;;;;;;5.03;3.20;;;;;;;2.06;80.21;100107.91;1824063;78;21021;-77
2021/12/19 00:11:13;;;;;;;5.20;3.20;;;;;;;2.08;80.15;100106.69;1823719;78;20998;-76
2021/12/19 00:13:41;;;;;;;4.97;3.22;;;;;;;2.10;80.15;100105.95;1823611;78;21022;-76
2021/12/19 00:16:08;;;;;;;4.60;3.08;;;;;;;2.13;80.13;100102.60;1823788;78;21469;-76
2021/12/19 00:18:35;;;;;;;5.70;3.33;;;;;;;2.14;80.08;100094.98;1823786;78;22114;-76
2021/12/19 00:21:01;;;;;;;4.78;3.27;;;;;;;2.11;80.12;100084.39;1823607;78;21482;-76
2021/12/19 00:23:28;;;;;;;4.83;3.40;;;;;;;2.08;80.20;100086.12;1823910;78;21647;-77
2021/12/19 00:25:54;;;;;;;5.83;3.40;;;;;;;2.09;80.26;100081.95;1823596;78;20997;-77
2021/12/19 00:28:21;;;;;;;5.37;3.50;;;;;;;2.13;80.30;100067.03;1823857;78;21044;-76
2021/12/19 00:30:48;;;;;;;5.08;3.30;;;;;;;2.10;80.32;100066.42;1823812;78;21131;-77
2021/12/19 00:33:16;;;;;;;5.37;3.83;;;;;;;2.14;80.32;100066.00;1798236;78;21053;-76
2021/12/19 00:35:43;;;;;;;6.62;4.45;;;;;;;2.15;80.28;100056.59;1798805;78;20962;-76
2021/12/19 00:38:09;;;;;;;5.72;3.70;;;;;;;2.19;80.30;100051.69;1791537;80;21001;-76
2021/12/19 00:40:37;;;;;;;6.67;4.40;;;;;;;2.19;80.26;100047.74;1815103;78;38204;-76
2021/12/19 00:43:09;;;;;;;5.47;3.90;;;;;;;2.22;80.20;100053.91;1823577;78;21946;-76
2021/12/19 00:45:35;;;;;;;6.47;4.03;;;;;;;2.22;80.15;100043.36;1823448;78;20947;-76
2021/12/19 00:48:04;;;;;;;6.40;4.10;;;;;;;2.25;80.06;100031.08;1823174;78;21104;-76
2021/12/19 00:50:31;;;;;;;5.92;4.10;;;;;;;2.31;80.03;100029.70;1823783;78;21057;-77
2021/12/19 00:52:58;;;;;;;7.08;4.30;;;;;;;2.38;79.92;100003.30;1823786;78;21041;-77
2021/12/19 00:55:27;;;;;;;6.95;4.42;;;;;;;2.39;79.73;99996.99;1802020;78;20999;-77
2021/12/19 00:57:55;;;;;;;6.30;4.33;;;;;;;2.37;79.62;100000.37;1791490;80;20978;-77
2021/12/19 01:00:24;;;;;;;5.90;4.25;;;;;;;2.37;79.53;99996.42;1791348;80;21088;-76
2021/12/19 01:02:53;;;;;;;6.58;4.45;;;;;;;2.38;79.49;99991.44;1791220;80;20946;-77
2021/12/19 01:05:19;;;;;;;6.78;5.08;;;;;;;2.39;79.44;99986.97;1791397;78;21179;-76
2021/12/19 01:07:47;;;;;;;6.45;4.85;;;;;;;2.41;79.37;99982.30;1791347;80;21120;-76
2021/12/19 01:10:14;;;;;;;8.03;5.33;;;;;;;2.41;79.26;99971.75;1791391;80;21038;-75
2021/12/19 01:12:41;;;;;;;7.30;5.30;;;;;;;2.41;79.20;99975.19;1791591;80;21018;-76
2021/12/19 01:15:11;;;;;;;7.40;5.10;;;;;;;2.42;79.18;99967.56;1806412;78;21045;-76
2021/12/19 01:17:37;;;;;;;6.62;4.60;;;;;;;2.43;79.13;99971.00;1823606;78;21579;-76
2021/12/19 01:20:08;;;;;;;7.00;5.00;;;;;;;2.43;79.05;99948.09;1823678;78;21500;-76
2021/12/19 01:22:34;;;;;;;6.90;4.92;;;;;;;2.45;79.03;99957.11;1821994;78;21536;-76
2021/12/19 01:25:01;;;;;;;6.50;4.87;;;;;;;2.46;79.02;99948.97;1823556;78;20966;-76
2021/12/19 01:27:28;;;;;;;6.85;4.87;;;;;;;2.48;78.99;99949.56;1823612;78;21030;-75
2021/12/19 01:29:54;;;;;;;7.87;5.33;;;;;;;2.49;78.96;99941.14;1823715;78;21041;-76
2021/12/19 01:32:22;;;;;;;6.78;5.00;;;;;;;2.49;78.96;99927.44;1823629;78;21072;-76
2021/12/19 01:34:49;;;;;;;6.45;4.90;;;;;;;2.48;78.91;99912.66;1823583;78;21513;-75
2021/12/19 01:37:15;;;;;;;7.30;4.83;;;;;;;2.51;78.91;99909.59;1823836;78;21068;-76
2021/12/19 01:39:42;;;;;;;7.67;5.37;;;;;;;2.52;78.89;99910.39;1823736;78;20990;-75
2021/12/19 01:42:11;;;;;;;6.67;4.50;;;;;;;2.49;78.82;99888.42;1805432;78;21038;-76
2021/12/19 01:44:37;;;;;;;8.38;5.00;;;;;;;2.51;78.79;99907.47;1791413;80;21100;-76
2021/12/19 01:47:05;;;;;;;6.67;4.83;;;;;;;2.49;78.81;99887.11;1791371;80;21541;-76
2021/12/19 01:49:32;;;;;;;7.62;5.00;;;;;;;2.51;78.69;99877.95;1791402;80;21148;-76
2021/12/19 01:51:58;;;;;;;7.37;5.12;;;;;;;2.53;78.69;99873.28;1791677;80;21246;-75
2021/12/19 01:54:26;;;;;;;7.80;5.55;;;;;;;2.53;78.65;99854.83;1791398;80;21210;-75
2021/12/19 01:56:52;;;;;;;7.83;5.12;;;;;;;2.51;78.58;99856.87;1791357;80;22093;-75
2021/12/19 01:59:20;;;;;;;7.05;5.10;;;;;;;2.49;78.64;99837.82;1791285;80;21072;-75
2021/12/19 02:01:50;;;;;;;7.00;5.65;;;;;;;2.56;78.48;99824.05;1791661;80;21096;-75
2021/12/19 02:04:18;;;;;;;6.53;5.30;;;;;;;2.57;78.45;99815.64;1791767;80;21006;-75
2021/12/19 02:06:46;;;;;;;7.45;5.62;;;;;;;2.57;78.43;99820.92;1791454;80;21060;-75
2021/12/19 02:09:13;;;;;;;6.10;5.03;;;;;;;2.62;78.45;99828.15;1791908;80;21473;-76
2021/12/19 02:11:41;;;;;;;7.08;5.20;;;;;;;2.49;78.69;99820.69;1791438;80;21171;-76
2021/12/19 02:14:09;;;;;;;6.72;5.12;;;;;;;2.45;78.94;99805.55;1791979;80;20982;-75
2021/12/19 02:16:38;;;;;;;7.30;5.40;;;;;;;2.47;79.02;99805.63;1792049;80;20969;-76
2021/12/19 02:19:06;;;;;;;7.20;5.45;;;;;;;2.48;79.10;99790.09;1791932;80;20994;-76
2021/12/19 02:21:33;;;;;;;6.30;4.95;;;;;;;2.49;79.06;99800.12;1794244;78;21781;-76
2021/12/19 02:24:04;;;;;;;8.05;5.42;;;;;;;2.44;79.10;99799.48;1824186;78;20990;-76
2021/12/19 02:26:30;;;;;;;7.08;5.37;;;;;;;2.46;79.07;99792.66;1824498;78;21498;-76
2021/12/19 02:28:57;;;;;;;6.50;5.20;;;;;;;2.46;79.12;99785.55;1813946;78;21002;-75
2021/12/19 02:31:27;;;;;;;7.67;5.20;;;;;;;2.45;79.16;99766.81;1824616;78;21022;-75
2021/12/19 02:39:33;;;;;;;7.20;4.90;;;;;;;2.43;79.30;99762.27;1824758;78;20974;-77
2021/12/19 02:50:05;;;;;;;7.53;5.30;;;;;;;2.46;79.33;99746.53;1768044;81;20951;-76
2021/12/19 02:52:32;;;;;;;7.62;5.80;;;;;;;2.45;79.39;99742.30;1737516;82;21000;-75
2021/12/19 02:54:59;;;;;;;6.75;4.80;;;;;;;2.46;79.33;99730.20;1768154;81;20994;-75
2021/12/19 02:57:25;;;;;;;7.65;5.37;;;;;;;2.46;79.39;99724.13;1737329;82;21961;-75
2021/12/19 02:59:52;;;;;;;7.30;5.35;;;;;;;2.46;79.41;99724.13;1767949;81;21512;-75
2021/12/19 03:02:19;;;;;;;7.50;5.30;;;;;;;2.43;79.44;99714.83;1737311;82;21005;-75
2021/12/19 03:04:54;;;;;;;8.03;5.60;;;;;;;2.40;79.50;99714.47;1767905;81;21053;-76
2021/12/19 03:07:21;;;;;;;7.17;5.05;;;;;;;2.37;79.62;99703.89;1767678;81;21414;-75
2021/12/19 03:12:35;;;;;;;7.30;5.30;;;;;;;2.33;79.94;99693.48;1767580;81;21535;-76
2021/12/19 03:17:59;;;;;;;6.22;4.72;;;;;;;2.34;80.14;99681.94;1767532;81;21013;-76
2021/12/19 03:20:29;;;;;;;7.08;4.87;;;;;;;2.35;80.18;99668.52;1767729;81;21516;-76
2021/12/19 03:22:56;;;;;;;6.83;4.97;;;;;;;2.29;80.51;99657.55;1767540;81;20966;-76
2021/12/19 03:25:22;;;;;;;7.08;5.28;;;;;;;2.27;80.60;99656.17;1767785;81;21543;-76
2021/12/19 03:27:49;;;;;;;7.55;5.70;;;;;;;2.25;80.78;99668.27;1767438;81;21076;-76
2021/12/19 03:30:17;;;;;;;7.42;5.40;;;;;;;2.22;80.96;99660.80;1767753;81;21060;-76
2021/12/19 03:32:44;;;;;;;6.55;4.80;;;;;;;2.24;81.08;99661.39;1767407;81;21544;-76
2021/12/19 03:35:11;;;;;;;6.67;4.83;;;;;;;2.23;81.17;99643.95;1767966;81;21452;-77
2021/12/19 03:37:38;;;;;;;6.45;5.10;;;;;;;2.19;81.36;99635.42;1767640;81;21071;-76
2021/12/19 03:40:09;;;;;;;6.78;5.20;;;;;;;2.18;81.45;99627.23;1789766;79;21053;-76
2021/12/19 03:42:44;;;;;;;7.17;5.17;;;;;;;2.17;81.47;99624.30;1804016;79;21071;-76
2021/12/19 03:45:14;;;;;;;6.20;4.62;;;;;;;2.15;81.66;99615.83;1817853;79;20996;-76
2021/12/19 03:47:41;;;;;;;8.25;5.80;;;;;;;2.10;81.82;99615.97;1818327;79;21462;-75
2021/12/19 03:50:10;;;;;;;7.70;5.40;;;;;;;2.07;81.96;99612.48;1818683;79;20958;-75
2021/12/19 03:52:38;;;;;;;6.50;4.85;;;;;;;2.07;82.18;99609.03;1818415;79;21478;-76
2021/12/19 03:55:06;;;;;;;7.55;4.92;;;;;;;2.07;82.38;99594.55;1818492;79;21003;-76
2021/12/19 03:57:33;;;;;;;7.10;5.12;;;;;;;2.06;82.60;99591.11;1818489;79;20951;-76
2021/12/19 04:00:01;;;;;;;8.00;5.58;;;;;;;2.06;82.73;99579.26;1818580;79;21023;-76
2021/12/19 04:02:29;;;;;;;7.92;5.33;;;;;;;2.06;82.90;99564.77;1818268;79;21973;-76
2021/12/19 04:04:58;;;;;;;7.60;5.60;;;;;;;2.04;83.15;99562.06;1818380;79;21102;-76
2021/12/19 04:07:26;;;;;;;7.33;5.08;;;;;;;2.03;83.26;99553.88;1818276;79;20999;-76
2021/12/19 04:09:53;;;;;;;7.33;4.65;;;;;;;2.06;83.29;99539.75;1818745;79;20979;-76
2021/12/19 04:12:23;;;;;;;7.45;4.97;;;;;;;2.08;83.35;99543.48;1818395;79;20936;-76
2021/12/19 04:14:48;;;;;;;7.22;5.20;;;;;;;2.10;83.36;99543.53;1818462;79;21767;-76
2021/12/19 04:17:15;;;;;;;7.20;5.33;;;;;;;2.14;83.37;99528.59;1818369;79;21606;-76
2021/12/19 04:19:42;;;;;;;7.10;4.97;;;;;;;2.19;83.35;99522.14;1818745;79;21494;-76
2021/12/19 04:22:09;;;;;;;7.40;5.35;;;;;;;2.21;83.32;99518.78;1818406;79;21027;-76
2021/12/19 04:24:37;;;;;;;7.72;5.72;;;;;;;2.25;83.32;99518.59;1818301;79;21002;-77
2021/12/19 04:27:04;;;;;;;7.42;5.15;;;;;;;2.28;83.28;99499.19;1818501;79;21483;-77
2021/12/19 04:29:30;;;;;;;6.78;4.75;;;;;;;2.30;83.22;99510.80;1818622;79;21000;-77
2021/12/19 04:31:58;;;;;;;6.37;4.70;;;;;;;2.30;83.19;99493.18;1818359;79;20979;-77
2021/12/19 04:34:25;;;;;;;6.97;4.62;;;;;;;2.34;83.15;99486.94;1818766;79;21000;-76
2021/12/19 04:37:00;;;;;;;6.85;4.72;;;;;;;2.35;83.12;99495.12;1818225;79;20995;-77
2021/12/19 04:39:53;;;;;;;5.55;3.80;;;;;;;2.35;83.06;99480.11;1788484;79;22141;-76
2021/12/19 04:42:40;;;;;;;6.17;4.53;;;;;;;2.41;83.00;99477.08;1780243;80;21439;-77
2021/12/19 04:57:52;;;;;;;6.12;4.28;;;;;;;2.50;82.92;99464.33;1817603;79;21026;-75
2021/12/19 05:00:18;;;;;;;7.33;4.65;;;;;;;2.53;82.97;99468.66;1816675;79;21015;-75
2021/12/19 05:02:55;;;;;;;5.72;4.12;;;;;;;2.55;83.09;99457.34;1818901;79;21094;-75
2021/12/19 05:05:33;;;;;;;6.53;4.33;;;;;;;2.51;83.21;99458.84;1807384;79;21596;-75
2021/12/19 05:16:07;;;;;;;7.45;5.12;;;;;;;2.32;84.72;99420.48;1786583;80;21018;-75
2021/12/19 05:18:38;;;;;;;8.48;5.15;;;;;;;2.33;84.86;99408.89;1786397;80;21502;-75
2021/12/19 05:21:11;;;;;;;7.60;4.78;;;;;;;2.49;84.62;99407.39;1788277;79;21083;-75
2021/12/19 05:23:51;;;;;;;5.45;4.05;;;;;;;2.59;84.41;99399.69;1786770;79;21018;-75
2021/12/19 05:26:02;;;;;;;8.15;5.20;;;;;;;2.63;84.31;99386.32;1786041;80;21062;-75
2021/12/19 05:28:29;;;;;;;7.75;4.70;;;;;;;2.64;84.26;99393.73;1786175;79;21086;-75
2021/12/19 05:30:56;;;;;;;7.67;4.62;;;;;;;2.54;84.42;99378.52;1786565;80;21480;-74
2021/12/19 05:33:23;;;;;;;8.83;5.30;;;;;;;2.42;84.89;99375.09;1786122;80;20920;-75
2021/12/19 05:46:50;;;;;;;8.60;4.95;;;;;;;2.67;84.60;99372.19;1818665;79;20952;-75
2021/12/19 05:49:16;;;;;;;8.05;5.00;;;;;;;2.70;84.53;99357.19;1818606;79;20971;-75
2021/12/19 05:51:43;;;;;;;7.37;4.30;;;;;;;2.70;84.47;99359.83;1818553;79;21047;-75
2021/12/19 05:54:10;;;;;;;8.00;5.37;;;;;;;2.72;84.42;99361.20;1818910;79;20924;-75
2021/12/19 05:56:37;;;;;;;7.12;4.17;;;;;;;2.71;84.44;99345.11;1818496;79;21056;-75
2021/12/19 05:59:04;;;;;;;6.22;4.60;;;;;;;2.76;84.38;99326.76;1818611;78;21559;-75
2021/12/19 06:01:31;;;;;;;7.22;5.05;;;;;;;2.78;84.30;99323.88;1818589;79;20992;-75
2021/12/19 06:03:58;;;;;;;7.03;4.90;;;;;;;2.82;84.27;99324.99;1818533;79;20987;-74
2021/12/19 06:06:26;;;;;;;6.62;4.60;;;;;;;2.84;84.20;99312.91;1818808;79;20979;-75
2021/12/19 06:08:54;;;;;;;6.90;4.85;;;;;;;2.88;84.17;99311.39;1818868;79;22195;-75
2021/12/19 06:11:20;;;;;;;7.03;4.78;;;;;;;2.92;84.04;99306.70;1818981;78;21483;-74
2021/12/19 06:13:47;;;;;;;7.00;4.50;;;;;;;2.93;83.91;99290.36;1818497;79;21035;-77
2021/12/19 06:16:14;;;;;;;6.95;4.72;;;;;;;2.96;83.83;99293.35;1818844;79;20935;-74
2021/12/19 06:18:41;;;;;;;7.33;4.87;;;;;;;2.94;83.77;99286.19;1818649;79;21000;-74
2021/12/19 06:21:07;;;;;;;6.85;4.50;;;;;;;2.99;83.79;99286.25;1818877;79;21757;-74
2021/12/19 06:23:34;;;;;;;7.12;4.70;;;;;;;2.98;83.70;99280.70;1818698;79;21015;-73
2021/12/19 06:26:00;;;;;;;6.35;4.50;;;;;;;2.97;83.65;99260.66;1818651;79;20968;-74
2021/12/19 06:28:27;;;;;;;6.90;4.67;;;;;;;3.02;83.62;99274.43;1818735;79;21058;-75
2021/12/19 06:30:54;;;;;;;7.50;5.00;;;;;;;3.00;83.62;99261.50;1818656;79;21047;-74
2021/12/19 06:33:21;;;;;;;6.85;5.10;;;;;;;3.03;83.63;99263.66;1818616;79;21818;-75
2021/12/19 06:35:48;;;;;;;7.45;5.08;;;;;;;3.05;83.63;99272.11;1818597;79;21039;-75
2021/12/19 06:38:15;;;;;;;6.42;4.45;;;;;;;3.09;83.63;99267.16;1818883;79;20987;-75
2021/12/19 06:40:42;;;;;;;8.58;4.95;;;;;;;3.12;83.59;99269.31;1818749;79;21129;-74
2021/12/19 06:43:09;;;;;;;6.55;4.80;;;;;;;3.13;83.60;99278.06;1818523;78;20967;-75
2021/12/19 06:45:37;;;;;;;8.25;5.45;;;;;;;3.11;83.61;99269.05;1818987;79;21480;-75
2021/12/19 06:48:04;;;;;;;7.42;5.17;;;;;;;3.12;83.63;99269.31;1818974;79;20928;-75
2021/12/19 06:50:30;;;;;;;6.90;4.60;;;;;;;3.14;83.62;99261.18;1818605;78;21134;-75
2021/12/19 06:52:57;;;;;;;6.85;4.97;;;;;;;3.15;83.66;99256.17;1819229;79;21011;-75
2021/12/19 06:55:24;;;;;;;7.67;5.45;;;;;;;3.17;83.64;99226.41;1818981;79;20975;-76
2021/12/19 06:57:50;;;;;;;8.60;5.83;;;;;;;3.19;83.69;99217.22;1803224;79;22085;-75
2021/12/19 07:00:21;;;;;;;7.03;5.35;;;;;;;3.24;83.66;99206.72;1793115;79;21526;-75
2021/12/19 07:02:48;;;;;;;9.08;6.55;;;;;;;3.27;83.63;99190.41;1786341;80;20967;-76
2021/12/19 07:05:15;;;;;;;7.90;5.80;;;;;;;3.32;83.55;99190.98;1786285;80;20967;-76
2021/12/19 07:07:42;;;;;;;7.22;5.33;;;;;;;3.31;83.44;99173.56;1786589;80;20956;-76
2021/12/19 07:10:10;;;;;;;7.15;5.33;;;;;;;3.36;83.47;99168.37;1786489;80;22008;-75
2021/12/19 07:12:37;;;;;;;8.55;5.75;;;;;;;3.41;83.43;99161.82;1786187;80;21070;-76
2021/12/19 07:15:07;;;;;;;8.20;5.60;;;;;;;3.42;83.25;99185.87;1786444;79;20952;-76
2021/12/19 07:17:34;;;;;;;7.87;5.65;;;;;;;3.40;83.13;99203.78;1786169;80;20979;-76
2021/12/19 07:20:02;;;;;;;8.30;6.08;;;;;;;3.40;83.10;99202.46;1786793;80;21055;-76
2021/12/19 07:22:28;;;;;;;9.05;6.28;;;;;;;3.36;83.09;99221.16;1786509;79;21128;-76
2021/12/19 07:24:55;;;;;;;8.63;5.87;;;;;;;3.37;83.12;99225.91;1786864;80;21416;-76
2021/12/19 07:27:21;;;;;;;7.62;5.55;;;;;;;3.38;83.15;99224.33;1786359;80;21118;-76
2021/12/19 07:29:48;;;;;;;9.58;5.78;;;;;;;3.40;83.14;99212.23;1786764;80;20943;-76
2021/12/19 07:32:16;;;;;;;7.87;5.80;;;;;;;3.41;83.24;99194.81;1758079;80;21472;-76
2021/12/19 07:34:46;;;;;;;8.45;5.83;;;;;;;3.41;83.24;99190.86;1796574;79;20928;-76
2021/12/19 07:37:13;;;;;;;10.43;6.42;;;;;;;3.41;83.31;99168.42;1818622;79;21498;-76
2021/12/19 07:39:51;;;;;;;9.60;6.28;;;;;;;3.43;83.35;99157.11;1818931;78;21526;-76
2021/12/19 07:42:10;;;;;;;8.58;6.40;;;;;;;3.41;83.43;99153.91;1814400;79;21002;-76
2021/12/19 07:44:38;;;;;;;8.18;5.50;;;;;;;3.40;83.52;99156.27;1818978;79;21030;-75
2021/12/19 07:47:08;;;;;;;8.58;6.10;;;;;;;3.41;83.54;99138.06;1787549;79;21181;-75
2021/12/19 07:49:35;;;;;;;7.33;5.33;;;;;;;3.41;83.71;99141.23;1786480;80;21075;-75
2021/12/19 07:52:03;;;;;;;8.48;5.85;;;;;;;3.39;83.73;99139.34;1786471;80;21097;-75
2021/12/19 07:54:32;;;;;;;8.48;5.75;;;;;;;3.38;83.85;99117.97;1788619;79;21141;-75
2021/12/19 07:56:59;;;;;;;7.72;5.75;;;;;;;3.40;83.84;99123.81;1814823;79;21070;-76
2021/12/19 07:59:25;;;;;;;8.15;5.92;;;;;;;3.41;83.85;99117.48;1818279;79;21460;-76
2021/12/19 08:01:52;;;;;;;9.73;6.55;;;;;;;3.41;83.94;99106.92;1787898;79;21015;-76
2021/12/19 08:04:19;;;;;;;8.98;6.17;;;;;;;3.42;83.96;99105.38;1786671;80;21043;-75
2021/12/19 08:06:46;;;;;;;9.68;6.53;;;;;;;3.47;83.98;99091.42;1787444;79;21050;-76
2021/12/19 08:09:22;;;;;;;9.50;6.42;;;;;;;3.48;83.99;99099.61;1786830;80;21407;-76
2021/12/19 08:11:43;;;;;;;9.53;6.60;;;;;;;3.48;83.96;99107.00;1786341;80;21332;-76
2021/12/19 08:14:13;;;;;;;10.45;7.20;;;;;;;3.48;84.02;99122.84;1786290;80;21039;-76
2021/12/19 08:16:43;;;;;;;8.93;6.45;;;;;;;3.47;84.08;99123.89;1786473;80;21030;-76
2021/12/19 08:19:09;;;;;;;11.28;6.83;;;;;;;3.47;84.11;99113.34;1786700;80;20928;-76
2021/12/19 08:21:36;;;;;;;11.60;7.42;;;;;;;3.47;84.17;99112.02;1787580;79;20983;-77
2021/12/19 08:24:10;;;;;;;12.25;6.95;;;;;;;3.40;84.28;99099.53;1793468;79;22004;-75
2021/12/19 08:26:34;;;;;;;11.85;7.25;;;;;;;3.40;84.38;99086.33;1818041;79;21427;-76
2021/12/19 08:29:01;;;;;;;10.32;7.22;;;;;;;3.41;84.45;99076.04;1798127;79;21561;-76
2021/12/19 08:31:28;;;;;;;11.90;7.03;;;;;;;3.42;84.49;99073.70;1786247;80;21046;-75
2021/12/19 08:33:55;;;;;;;12.20;7.67;;;;;;;3.42;84.65;99057.04;1802752;79;20963;-77
2021/12/19 08:36:22;;;;;;;10.00;6.78;;;;;;;3.42;84.71;99057.86;1818201;79;21500;-76
2021/12/19 08:38:49;;;;;;;12.03;7.15;;;;;;;3.39;84.79;99055.72;1818629;79;20991;-75
2021/12/19 08:41:16;;;;;;;12.20;7.55;;;;;;;3.40;84.84;99040.67;1818669;79;21027;-75
2021/12/19 08:43:44;;;;;;;11.08;6.40;;;;;;;3.42;84.96;99039.39;1818521;79;21495;-74
2021/12/19 08:46:11;;;;;;;11.57;7.47;;;;;;;3.41;84.97;99067.33;1818755;79;21086;-75
2021/12/19 08:48:39;;;;;;;11.78;7.37;;;;;;;3.39;85.06;99050.94;1818752;79;21626;-76
2021/12/19 08:51:05;;;;;;;13.05;7.47;;;;;;;3.39;85.16;99038.56;1818918;79;20920;-75
2021/12/19 08:53:32;;;;;;;11.83;7.03;;;;;;;3.41;85.14;99037.77;1819432;79;21506;-75
2021/12/19 08:55:59;;;;;;;11.70;7.72;;;;;;;3.41;85.15;99023.25;1819235;79;21027;-75
2021/12/19 08:58:28;;;;;;;12.43;7.47;;;;;;;3.43;85.17;99000.06;1819014;79;21030;-75
2021/12/19 09:00:57;;;;;;;12.53;8.20;;;;;;;3.44;85.16;99016.16;1816883;78;21323;-75
2021/12/19 09:03:22;;;;;;;11.60;7.20;;;;;;;3.44;85.13;99012.73;1789603;79;21000;-75
2021/12/19 09:05:49;;;;;;;11.83;7.45;;;;;;;3.44;85.15;98995.05;1786514;80;21541;-75
2021/12/19 09:08:15;;;;;;;12.23;7.95;;;;;;;3.44;85.15;98988.45;1813300;79;20956;-75
2021/12/19 09:10:44;;;;;;;12.18;7.28;;;;;;;3.47;85.10;98990.59;1818699;79;20936;-75
2021/12/19 09:13:10;;;;;;;11.78;7.60;;;;;;;3.50;84.97;98990.62;1800504;79;21473;-75
2021/12/19 09:15:37;;;;;;;13.72;7.87;;;;;;;3.51;84.91;98984.30;1786516;79;21113;-75
2021/12/19 09:18:05;;;;;;;13.55;7.85;;;;;;;3.51;84.78;98990.89;1786418;79;21042;-75
2021/12/19 09:20:32;;;;;;;11.20;7.42;;;;;;;3.49;84.67;98984.55;1786381;80;21094;-75
2021/12/19 09:22:59;;;;;;;11.95;7.95;;;;;;;3.40;84.45;98981.29;1786410;80;20998;-75
2021/12/19 09:25:25;;;;;;;10.90;7.10;;;;;;;3.37;84.42;98977.83;1798533;79;22081;-75
2021/12/19 09:27:53;;;;;;;14.58;9.05;;;;;;;3.31;84.17;98980.92;1818723;79;21498;-75
2021/12/19 09:30:20;;;;;;;10.85;6.67;;;;;;;3.26;83.99;98979.03;1789470;79;21498;-75
2021/12/19 09:32:49;;;;;;;10.65;6.80;;;;;;;3.17;83.81;98979.20;1804087;79;21014;-75
2021/12/19 09:35:16;;;;;;;14.98;9.00;;;;;;;3.05;83.53;98971.40;1818671;79;21124;-75
2021/12/19 09:37:42;;;;;;;15.48;8.38;;;;;;;2.97;83.58;98965.78;1811925;79;21555;-74
2021/12/19 09:40:12;;;;;;;10.32;6.78;;;;;;;2.90;83.61;98976.52;1786337;80;20995;-75
2021/12/19 09:42:46;;;;;;;8.15;5.30;;;;;;;2.86;83.63;98964.84;1757953;80;21016;-75
2021/12/19 09:45:08;;;;;;;8.95;5.60;;;;;;;2.78;83.46;98955.52;1786523;80;21042;-74
2021/12/19 09:47:35;;;;;;;9.63;5.72;;;;;;;2.70;83.40;98950.69;1786419;79;21103;-74
2021/12/19 09:50:05;;;;;;;9.13;5.50;;;;;;;2.61;83.36;98949.52;1757643;80;21006;-74
2021/12/19 09:52:31;;;;;;;8.68;5.20;;;;;;;2.57;83.46;98939.98;1786178;80;21020;-78
2021/12/19 09:54:57;;;;;;;8.23;5.20;;;;;;;2.54;83.55;98932.56;1806785;79;21078;-75
2021/12/19 09:57:24;;;;;;;8.55;5.47;;;;;;;2.53;83.58;98931.47;1818424;79;21049;-75
2021/12/19 09:59:51;;;;;;;9.38;5.78;;;;;;;2.52;83.71;98925.41;1811196;79;21011;-80
2021/12/19 10:02:18;;;;;;;9.40;5.45;;;;;;;2.52;83.89;98914.87;1805618;79;21124;-77
2021/12/19 10:04:46;;;;;;;9.53;5.37;;;;;;;2.53;83.94;98907.75;1674649;78;10000156;-72
2021/12/19 10:07:24;;;;;;;8.48;5.03;;;;;;;2.56;84.10;98903.31;1799661;78;21051;-75
2021/12/19 10:10:11;;;;;;;10.23;5.70;;;;;;;2.59;84.21;98909.41;1808259;78;21029;-72
2021/12/19 10:12:48;;;;;;;9.88;5.78;;;;;;;2.63;84.32;98891.27;1793811;78;21526;-74
2021/12/19 10:15:12;;;;;;;9.93;6.05;;;;;;;2.67;84.46;98890.55;1792216;79;21561;-75
2021/12/19 10:17:40;;;;;;;10.40;5.60;;;;;;;2.71;84.48;98877.14;1786103;79;21054;-76
2021/12/19 10:20:12;;;;;;;11.30;6.42;;;;;;;2.78;84.58;98884.34;1807428;79;21601;-77
2021/12/19 10:22:46;;;;;;;8.40;5.70;;;;;;;2.85;84.62;98879.40;1806308;79;21616;-81
2021/12/19 10:25:30;;;;;;;7.70;5.20;;;;;;;2.90;84.70;98861.80;1793025;79;21195;-76
2021/12/19 10:28:03;;;;;;;10.88;6.83;;;;;;;2.95;84.77;98866.31;1808633;79;21070;-74
2021/12/19 10:30:40;;;;;;;11.03;6.45;;;;;;;2.97;84.84;98854.48;1806493;79;21041;-75
2021/12/19 10:33:11;;;;;;;10.60;5.97;;;;;;;3.04;84.89;98840.56;1815632;79;21090;-75
2021/12/19 10:35:47;;;;;;;11.53;7.00;;;;;;;3.10;84.97;98832.19;1789763;80;21046;-75
2021/12/19 10:38:24;;;;;;;12.00;6.62;;;;;;;3.17;85.02;98825.39;1800404;78;21084;-74
2021/12/19 10:40:55;;;;;;;12.03;6.45;;;;;;;3.20;85.07;98824.36;1804764;79;21075;-74
2021/12/19 10:43:26;;;;;;;10.90;6.05;;;;;;;3.25;85.19;98811.72;1812633;79;21066;-77
2021/12/19 10:45:58;;;;;;;12.78;7.30;;;;;;;3.31;85.32;98809.40;1795838;79;20984;-75
2021/12/19 10:48:27;;;;;;;;;;;;;;;3.38;85.34;98806.02;1792333;80;21561;-77
2021/12/19 10:51:07;;;;;;;12.03;5.85;;;;;;;3.44;85.39;98799.73;1789464;80;21065;-75
2021/12/19 10:53:54;;;;;;;11.53;6.30;;;;;;;3.49;85.50;98797.15;1794430;79;21090;-75
2021/12/19 10:56:31;;;;;;;11.70;6.42;;;;;;;3.57;85.58;98780.56;1799954;79;21051;-76
2021/12/19 10:59:17;;;;;;;8.95;5.30;;;;;;;3.63;85.67;98772.41;1804768;79;21070;-76
2021/12/19 11:01:48;;;;;;;9.05;5.58;;;;;;;3.68;85.81;98774.28;1800395;79;21078;-74
2021/12/19 11:04:22;;;;;;;9.80;5.70;;;;;;;3.74;85.87;98757.42;1794286;79;21769;-76
2021/12/19 11:06:58;;;;;;;10.03;5.65;;;;;;;3.84;85.99;98760.64;1812654;79;21093;-79
2021/12/19 11:09:37;;;;;;;8.53;5.05;;;;;;;3.92;86.03;98735.86;1802594;79;21054;-77
2021/12/19 11:12:11;;;;;;;6.92;4.00;;;;;;;4.02;86.01;98735.11;1801277;79;21125;-79
2021/12/19 11:14:44;;;;;;;7.17;4.42;;;;;;;4.07;85.96;98735.64;1812318;79;21122;-78
2021/12/19 11:17:18;;;;;;;;;;;;;;;4.16;85.89;98719.56;1817844;78;21109;-83
2021/12/19 11:19:45;;;;;;;7.92;4.42;;;;;;;4.23;85.85;98718.26;1801045;79;20351;-75
2021/12/19 11:22:13;;;;;;;6.97;3.83;;;;;;;4.30;85.80;98708.77;1802101;79;21573;-76
2021/12/19 11:24:40;;;;;;;7.15;3.70;;;;;;;4.35;85.66;98703.50;1800122;79;21545;-76
2021/12/19 11:27:08;;;;;;;6.28;3.30;;;;;;;4.43;85.62;98728.62;1800193;79;21015;-74
2021/12/19 11:29:36;;;;;;;5.75;3.22;;;;;;;4.45;85.38;98707.48;1785680;79;21070;-77
2021/12/19 11:32:07;;;;;;;5.92;3.50;;;;;;;4.53;85.21;98704.84;1785184;79;21305;-73
2021/12/19 11:35:07;;;;;;;5.37;2.92;;;;;;;4.59;84.85;98701.69;1799619;79;21078;-75
2021/12/19 11:37:50;;;;;;;6.70;3.17;;;;;;;4.66;84.64;98699.57;1795106;79;21455;-74
2021/12/19 11:40:19;;;;;;;6.28;3.05;;;;;;;4.71;84.41;98692.98;1808625;79;21094;-75
2021/12/19 11:42:46;;;;;;;6.05;3.10;;;;;;;4.77;84.24;98682.67;1802622;79;21144;-75
2021/12/19 11:47:57;;;;;;;5.87;3.45;;;;;;;4.82;83.75;98667.31;1799142;79;21030;-76
2021/12/19 11:50:29;;;;;;;6.85;3.77;;;;;;;4.86;83.46;98673.13;1810436;79;21252;-76
2021/12/19 11:53:13;;;;;;;6.28;3.25;;;;;;;4.87;83.02;98652.75;1800359;79;21007;-75
2021/12/19 11:55:41;;;;;;;6.65;3.30;;;;;;;4.92;82.60;98646.93;1807477;79;21542;-76
2021/12/19 11:58:14;;;;;;;5.37;3.20;;;;;;;4.96;82.47;98648.52;1797007;79;21654;-76
2021/12/19 12:00:57;;;;;;;6.85;3.85;;;;;;;5.00;82.19;98644.80;1796006;79;21081;-76
2021/12/19 12:03:35;;;;;;;5.37;3.20;;;;;;;5.03;82.03;98664.11;1805804;79;21110;-77
2021/12/19 12:06:24;;;;;;;6.83;3.50;;;;;;;5.04;81.97;98653.81;1778522;79;21030;-77
2021/12/19 12:09:19;;;;;;;5.90;3.00;;;;;;;5.00;81.89;98648.27;1811928;79;21610;-75
2021/12/19 12:12:10;;;;;;;7.33;3.52;;;;;;;4.98;81.82;98668.89;1793860;79;21062;-74
2021/12/19 12:14:43;;;;;;;5.62;3.20;;;;;;;4.99;81.73;98652.48;1806580;78;21020;-76
2021/12/19 12:17:20;;;;;;;5.72;3.22;;;;;;;4.99;81.69;98652.48;1797120;79;21006;-77
2021/12/19 12:19:52;;;;;;;5.45;2.92;;;;;;;5.00;81.52;98657.52;1811422;79;21077;-77
2021/12/19 12:22:32;;;;;;;5.90;3.15;;;;;;;5.03;81.39;98628.39;1807646;79;21095;-74
2021/12/19 12:25:19;;;;;;;5.42;3.10;;;;;;;5.06;80.96;98648.49;1826375;78;21054;-73
2021/12/19 12:27:54;;;;;;;5.00;3.00;;;;;;;5.10;80.97;98640.30;1807461;79;21098;-75
2021/12/19 12:30:27;;;;;;;5.00;3.02;;;;;;;5.11;80.69;98645.06;1804040;79;21039;-77
2021/12/19 12:32:58;;;;;;;5.30;2.87;;;;;;;5.11;80.60;98626.00;1814995;78;21027;-75
2021/12/19 12:35:25;;;;;;;4.92;2.40;;;;;;;5.15;80.47;98633.66;1819979;78;21108;-76
2021/12/19 12:37:54;;;;;;;5.15;2.80;;;;;;;5.14;80.11;98633.41;1811773;79;21047;-77
2021/12/19 12:43:15;;;;;;;4.97;2.87;;;;;;;5.16;79.90;98643.71;1794846;79;21042;-78
2021/12/19 12:45:53;;;;;;;4.20;2.50;;;;;;;5.16;79.86;98637.88;1777007;80;21097;-77
2021/12/19 12:48:38;;;;;;;4.00;2.30;;;;;;;5.19;79.79;98643.18;1813417;79;21078;-75
2021/12/19 12:51:24;;;;;;;5.53;2.62;;;;;;;5.17;79.67;98636.84;1812962;78;20971;-77